Time;durP1;ratioP1;P1;durP2;ratioP2;P2;SDS_P1;SDS_P2;PMS_P1;PMS_P2;Temp;Humidity;BMP_temperature;BMP_pressure;BME280_temperature;BME280_humidity;BME280_pressure;Samples;Min_cycle;Max_cycle;Signal;HPM_P1;HPM_P2
2022/10/02 00:00:44;;;;;;;8.48;1.40;;;;;;;11.84;100.00;100317.16;4816254;29;20153;-92
2022/10/02 00:03:26;;;;;;;11.55;1.83;;;;;;;11.84;100.00;100325.09;4839677;29;20041;-92
2022/10/02 00:06:05;;;;;;;9.88;2.50;;;;;;;11.83;100.00;100325.25;4802249;29;20034;-92
2022/10/02 00:08:42;;;;;;;17.65;2.08;;;;;;;11.82;100.00;100323.59;4838113;29;20526;-92
2022/10/02 00:11:21;;;;;;;10.25;1.77;;;;;;;11.83;100.00;100328.75;4832225;29;20063;-91
2022/10/02 00:14:13;;;;;;;13.63;1.60;;;;;;;11.82;100.00;100323.59;4808933;29;20106;-91
2022/10/02 00:16:49;;;;;;;9.75;1.55;;;;;;;11.83;100.00;100325.25;4800773;29;20041;-93
2022/10/02 00:19:18;;;;;;;7.30;1.20;;;;;;;11.82;100.00;100326.25;4823991;29;20056;-92
2022/10/02 00:22:11;;;;;;;8.13;1.33;;;;;;;11.78;100.00;100323.88;4804465;29;20152;-92
2022/10/02 00:24:56;;;;;;;10.68;1.45;;;;;;;11.75;100.00;100329.50;4829966;29;20046;-92
2022/10/02 00:27:53;;;;;;;7.43;1.27;;;;;;;11.70;100.00;100342.38;4826897;29;20041;-92
2022/10/02 00:30:22;;;;;;;9.38;1.88;;;;;;;11.66;100.00;100343.66;4826348;29;20045;-93
2022/10/02 00:33:28;;;;;;;9.57;1.77;;;;;;;11.65;100.00;100336.72;4810522;29;20069;-93
2022/10/02 00:36:12;;;;;;;14.40;1.67;;;;;;;11.65;100.00;100345.50;4806208;29;20094;-92
2022/10/02 00:39:00;;;;;;;8.65;1.40;;;;;;;11.61;100.00;100332.72;4809967;29;20098;-93
2022/10/02 00:42:08;;;;;;;13.85;2.50;;;;;;;11.60;100.00;100342.47;4826814;29;20102;-93
2022/10/02 00:44:56;;;;;;;20.73;7.05;;;;;;;11.59;100.00;100337.34;4826530;29;20396;-92
2022/10/02 00:47:46;;;;;;;30.77;12.63;;;;;;;11.59;100.00;100330.22;4841062;29;20045;-92
2022/10/02 00:50:37;;;;;;;17.30;7.45;;;;;;;11.59;100.00;100339.97;4808821;29;20038;-92
2022/10/02 00:53:45;;;;;;;15.15;6.05;;;;;;;11.56;100.00;100345.59;4812286;29;20038;-93
2022/10/02 00:56:38;;;;;;;16.05;3.92;;;;;;;11.54;100.00;100349.22;4828417;29;20041;-93
2022/10/02 00:59:15;;;;;;;9.85;2.40;;;;;;;11.50;100.00;100347.00;4839947;29;20052;-92
2022/10/02 01:02:10;;;;;;;14.25;2.80;;;;;;;11.46;100.00;100354.44;4847063;29;20046;-93
2022/10/02 01:04:40;;;;;;;10.68;2.38;;;;;;;11.45;100.00;100366.00;4810563;29;20046;-92
2022/10/02 01:07:11;;;;;;;8.32;2.35;;;;;;;11.40;100.00;100363.00;4823941;29;20131;-91
2022/10/02 01:09:41;;;;;;;7.45;1.40;;;;;;;11.34;100.00;100360.97;4825163;29;20666;-93
2022/10/02 01:12:09;;;;;;;9.27;1.67;;;;;;;11.36;100.00;100373.03;4796288;29;20041;-93
2022/10/02 01:14:40;;;;;;;13.23;1.70;;;;;;;11.39;100.00;100385.13;4819656;29;20061;-93
2022/10/02 01:17:26;;;;;;;9.52;2.08;;;;;;;11.39;100.00;100390.41;4813321;29;20038;-92
2022/10/02 01:19:58;;;;;;;13.15;2.90;;;;;;;11.36;100.00;100385.44;4819554;29;20042;-93
2022/10/02 01:22:35;;;;;;;14.38;2.42;;;;;;;11.43;100.00;100389.16;4810965;29;20041;-93
2022/10/02 01:25:07;;;;;;;11.40;2.42;;;;;;;11.46;100.00;100390.66;4802246;29;20516;-92
2022/10/02 01:27:37;;;;;;;8.15;1.92;;;;;;;11.46;100.00;100395.94;4826532;29;20042;-92
2022/10/02 01:30:08;;;;;;;13.20;2.05;;;;;;;11.45;100.00;100403.06;4821504;29;20038;-92
2022/10/02 01:32:49;;;;;;;12.57;1.88;;;;;;;11.46;100.00;100395.94;4836753;29;20109;-93
2022/10/02 01:35:20;;;;;;;17.27;2.20;;;;;;;11.46;100.00;100399.44;4819032;29;20133;-92
2022/10/02 01:37:57;;;;;;;10.98;1.88;;;;;;;11.49;100.00;100388.53;4826564;29;20037;-92
2022/10/02 01:40:36;;;;;;;11.23;1.75;;;;;;;11.48;100.00;100392.16;4841921;29;20042;-92
2022/10/02 01:43:14;;;;;;;14.25;1.92;;;;;;;11.47;100.00;100379.06;4826052;29;20487;-85
2022/10/02 01:45:53;;;;;;;7.70;1.95;;;;;;;11.46;100.00;100394.16;4824991;29;20060;-85
2022/10/02 01:48:54;;;;;;;4.03;1.73;;;;;;;11.45;100.00;100404.88;4821486;29;20045;-92
2022/10/02 01:51:21;;;;;;;10.57;1.90;;;;;;;11.43;100.00;100404.19;4816956;29;20098;-92
2022/10/02 01:54:00;;;;;;;11.93;1.90;;;;;;;11.45;100.00;100400.41;4816711;29;20044;-92
2022/10/02 01:57:16;;;;;;;6.63;1.55;;;;;;;11.43;100.00;100405.03;4805370;29;20069;-92
2022/10/02 02:00:07;;;;;;;12.35;1.50;;;;;;;11.38;100.00;100396.72;4802835;29;20126;-92
2022/10/02 02:02:56;;;;;;;9.93;1.63;;;;;;;11.33;100.00;100396.31;4795262;29;20122;-92
2022/10/02 02:05:46;;;;;;;8.30;1.58;;;;;;;11.24;100.00;100416.59;4823329;29;20050;-92
2022/10/02 02:08:21;;;;;;;8.98;1.35;;;;;;;11.23;100.00;100415.75;4823683;29;20140;-92
2022/10/02 02:10:58;;;;;;;10.68;1.40;;;;;;;11.22;100.00;100429.13;4795130;29;20045;-92
2022/10/02 02:13:38;;;;;;;6.47;1.15;;;;;;;11.24;100.00;100427.16;4797589;29;20038;-91
2022/10/02 02:16:21;;;;;;;10.40;1.65;;;;;;;11.24;100.00;100432.47;4832302;29;20073;-92
2022/10/02 02:18:59;;;;;;;15.88;1.80;;;;;;;11.24;100.00;100430.66;4827482;29;20046;-92
2022/10/02 02:21:35;;;;;;;11.10;1.73;;;;;;;11.25;100.00;100452.63;4823831;29;20030;-92
2022/10/02 02:24:11;;;;;;;9.75;1.65;;;;;;;11.24;100.00;100457.13;4794093;29;20060;-92
2022/10/02 02:26:43;;;;;;;7.45;1.40;;;;;;;11.24;100.00;100445.69;4841152;29;20060;-91
2022/10/02 02:29:16;;;;;;;7.60;1.38;;;;;;;11.23;100.00;100447.50;4804875;29;20049;-92
2022/10/02 02:31:51;;;;;;;6.90;1.75;;;;;;;11.22;100.00;100445.00;4800400;29;20118;-92
2022/10/02 02:34:43;;;;;;;16.10;2.70;;;;;;;11.19;100.00;100448.78;4818819;29;20072;-93
2022/10/02 02:37:17;;;;;;;8.02;1.67;;;;;;;11.14;100.00;100448.38;4818852;29;20492;-91
2022/10/02 02:39:55;;;;;;;10.40;2.22;;;;;;;11.08;100.00;100456.91;4799103;29;20340;-92
2022/10/02 02:42:33;;;;;;;12.88;1.92;;;;;;;11.03;100.00;100457.34;4842032;29;20057;-92
2022/10/02 02:45:10;;;;;;;10.90;2.60;;;;;;;11.08;100.00;100470.97;4823254;29;20087;-92
2022/10/02 02:47:52;;;;;;;7.97;1.88;;;;;;;11.12;100.00;100476.78;4808960;29;20030;-92
2022/10/02 02:50:35;;;;;;;11.57;1.73;;;;;;;11.04;100.00;100472.25;4818875;29;20090;-85
2022/10/02 02:53:19;;;;;;;12.93;2.13;;;;;;;11.00;100.00;100476.16;4834331;29;20054;-92
2022/10/02 02:55:53;;;;;;;13.55;2.10;;;;;;;10.95;100.00;100466.03;4819856;29;20069;-92
2022/10/02 02:58:40;;;;;;;7.03;1.95;;;;;;;10.94;100.00;100468.81;4841039;29;20048;-92
2022/10/02 03:01:10;;;;;;;8.98;1.63;;;;;;;10.95;100.00;100479.25;4840968;29;20049;-92
2022/10/02 03:03:39;;;;;;;10.32;1.90;;;;;;;11.00;100.00;100468.22;4827512;29;20072;-92
2022/10/02 03:06:26;;;;;;;10.88;1.77;;;;;;;11.03;100.00;100479.38;4829942;29;20424;-92
2022/10/02 03:08:55;;;;;;;13.52;2.33;;;;;;;11.03;100.00;100483.81;4829852;29;20037;-91
2022/10/02 03:11:35;;;;;;;25.80;2.42;;;;;;;11.00;100.00;100492.88;4815182;29;20074;-91
2022/10/02 03:14:27;;;;;;;9.02;2.00;;;;;;;10.98;100.00;100494.81;4834666;29;20044;-91
2022/10/02 03:17:16;;;;;;;7.90;2.00;;;;;;;10.99;100.00;100500.97;4800516;29;20042;-91
2022/10/02 03:20:10;;;;;;;8.55;1.48;;;;;;;10.96;100.00;100502.06;4838488;29;20041;-92
2022/10/02 03:22:46;;;;;;;9.93;1.90;;;;;;;10.96;100.00;100509.19;4826121;29;20053;-92
2022/10/02 03:25:23;;;;;;;9.35;1.92;;;;;;;10.97;100.00;100514.31;4829799;29;20074;-92
2022/10/02 03:27:56;;;;;;;9.50;1.77;;;;;;;10.97;100.00;100514.31;4826630;29;20048;-92
2022/10/02 03:30:27;;;;;;;11.80;1.70;;;;;;;10.96;100.00;100514.47;4814271;29;20033;-92
2022/10/02 03:32:59;;;;;;;10.45;2.00;;;;;;;10.96;100.00;100523.22;4831363;29;20045;-92
2022/10/02 03:35:30;;;;;;;10.07;1.45;;;;;;;10.96;100.00;100528.50;4828322;29;20112;-93
2022/10/02 03:38:06;;;;;;;8.13;1.52;;;;;;;10.95;100.00;100526.00;4795639;29;20043;-92
2022/10/02 03:40:36;;;;;;;5.38;1.20;;;;;;;10.96;100.00;100528.50;4795965;29;20074;-91
2022/10/02 03:43:07;;;;;;;6.30;1.30;;;;;;;10.94;100.00;100535.75;4823910;29;20429;-93
2022/10/02 03:45:35;;;;;;;10.32;1.35;;;;;;;10.96;100.00;100544.38;4838460;29;20041;-93
2022/10/02 03:48:03;;;;;;;14.18;1.85;;;;;;;10.97;100.00;100550.50;4796969;29;20041;-92
2022/10/02 03:50:31;;;;;;;12.50;1.95;;;;;;;10.97;100.00;100546.06;4841398;29;20094;-92
2022/10/02 03:52:59;;;;;;;7.63;1.20;;;;;;;10.97;100.00;100543.41;4818154;29;20136;-92
2022/10/02 03:55:32;;;;;;;13.63;1.13;;;;;;;11.03;100.00;100549.94;4842958;29;20116;-92
2022/10/02 03:58:09;;;;;;;10.43;1.27;;;;;;;11.04;100.00;100544.50;4828629;29;20052;-93
2022/10/02 04:00:45;;;;;;;10.65;1.40;;;;;;;11.06;100.00;100531.13;4812844;29;20046;-93
2022/10/02 04:03:25;;;;;;;17.27;2.03;;;;;;;11.09;100.00;100540.56;4813216;29;20042;-92
2022/10/02 04:06:04;;;;;;;9.93;1.65;;;;;;;11.09;100.00;100541.41;4839488;29;20522;-93
2022/10/02 04:08:39;;;;;;;10.93;2.40;;;;;;;11.09;100.00;100540.56;4807712;29;20041;-93
2022/10/02 04:11:15;;;;;;;9.57;1.33;;;;;;;11.08;100.00;100542.41;4796383;29;20075;-92
2022/10/02 04:14:05;;;;;;;5.82;1.33;;;;;;;11.09;100.00;100548.50;4843901;29;20037;-92
2022/10/02 04:17:04;;;;;;;8.05;1.83;;;;;;;11.13;100.00;100549.91;4812296;29;20038;-92
2022/10/02 04:19:49;;;;;;;9.27;1.88;;;;;;;11.16;100.00;100558.34;4819819;29;20052;-93
2022/10/02 04:22:58;;;;;;;6.82;1.33;;;;;;;11.20;100.00;100563.34;4805970;29;20064;-92
2022/10/02 04:25:33;;;;;;;7.95;1.60;;;;;;;11.16;100.00;100570.78;4815573;29;20042;-92
2022/10/02 04:28:12;;;;;;;9.85;1.42;;;;;;;11.16;100.00;100578.72;4801646;29;20385;-92
2022/10/02 04:30:43;;;;;;;9.60;1.55;;;;;;;11.11;100.00;100581.78;4823744;29;20042;-90
2022/10/02 04:33:17;;;;;;;11.05;1.75;;;;;;;11.13;100.00;100586.94;4837480;29;20090;-92
2022/10/02 04:35:56;;;;;;;10.23;1.25;;;;;;;11.09;100.00;100583.75;4817625;29;20139;-92
2022/10/02 04:38:36;;;;;;;8.02;1.15;;;;;;;11.06;100.00;100591.97;4811381;29;20038;-91
2022/10/02 04:41:12;;;;;;;8.85;1.20;;;;;;;11.07;100.00;100596.25;4797962;29;20072;-92
2022/10/02 04:44:03;;;;;;;9.13;1.45;;;;;;;11.02;100.00;100603.81;4825530;29;20038;-92
2022/10/02 04:46:59;;;;;;;13.35;2.15;;;;;;;10.97;100.00;100604.25;4842338;29;20487;-92
2022/10/02 04:49:36;;;;;;;11.57;1.35;;;;;;;10.95;100.00;100605.34;4836682;29;20512;-91
2022/10/02 04:52:18;;;;;;;10.43;1.35;;;;;;;10.91;100.00;100610.09;4818334;29;20080;-92
2022/10/02 04:55:18;;;;;;;9.10;1.92;;;;;;;10.89;100.00;100604.94;4827089;29;20040;-91
2022/10/02 04:57:57;;;;;;;10.48;1.42;;;;;;;10.85;100.00;100605.38;4819313;29;20076;-92
2022/10/02 05:00:44;;;;;;;14.15;1.70;;;;;;;10.82;100.00;100619.72;4823487;29;20183;-91
2022/10/02 05:03:23;;;;;;;6.18;1.05;;;;;;;10.77;100.00;100632.50;4852370;29;20033;-91
2022/10/02 05:06:17;;;;;;;15.32;1.58;;;;;;;10.71;100.00;100633.94;4839192;29;20042;-92
2022/10/02 05:09:04;;;;;;;5.38;0.98;;;;;;;10.69;100.00;100635.06;4801242;29;20044;-91
2022/10/02 05:11:57;;;;;;;13.27;1.55;;;;;;;10.64;100.00;100649.50;4825702;29;20037;-92
2022/10/02 05:15:21;;;;;;;9.98;1.35;;;;;;;10.60;100.00;100663.13;4802147;29;20190;-92
2022/10/02 05:18:06;;;;;;;9.48;1.50;;;;;;;10.60;100.00;100668.44;4778193;29;20045;-92
2022/10/02 05:20:48;;;;;;;8.30;1.50;;;;;;;10.58;100.00;100663.28;4792953;29;20504;-93
2022/10/02 05:23:36;;;;;;;11.30;1.67;;;;;;;10.57;100.00;100671.34;4802280;29;20133;-92
2022/10/02 05:26:20;;;;;;;7.25;1.13;;;;;;;10.54;100.00;100669.84;4799436;29;20030;-92
2022/10/02 05:29:31;;;;;;;8.70;1.33;;;;;;;10.52;100.00;100677.06;4839606;29;20514;-92
2022/10/02 05:32:36;;;;;;;14.27;1.52;;;;;;;10.47;100.00;100677.47;4790670;29;20054;-91
2022/10/02 05:35:23;;;;;;;12.70;1.50;;;;;;;10.43;100.00;100682.16;4774885;29;20049;-92
2022/10/02 05:38:31;;;;;;;13.02;1.17;;;;;;;10.37;100.00;100689.78;4797369;29;20038;-91
2022/10/02 05:41:12;;;;;;;9.32;1.40;;;;;;;10.37;100.00;100700.34;4811443;29;20110;-93
2022/10/02 05:43:47;;;;;;;9.13;1.10;;;;;;;10.29;100.00;100693.97;4825087;29;20050;-92
2022/10/02 05:46:39;;;;;;;9.75;1.02;;;;;;;10.28;100.00;100696.75;4796724;29;20030;-93
2022/10/02 05:49:20;;;;;;;7.30;1.17;;;;;;;10.24;100.00;100698.00;4826879;29;20038;-92
2022/10/02 05:52:05;;;;;;;10.18;1.85;;;;;;;10.22;100.00;100708.69;4826976;29;20045;-92
2022/10/02 05:54:49;;;;;;;14.52;2.03;;;;;;;10.18;100.00;100707.28;4818259;29;20034;-93
2022/10/02 05:57:26;;;;;;;9.65;1.75;;;;;;;10.22;100.00;100708.69;4816353;29;20133;-93
2022/10/02 06:00:04;;;;;;;;;;;;;;;10.14;100.00;100719.09;4805987;29;20038;-93
2022/10/02 06:03:03;;;;;;;6.57;1.33;;;;;;;10.19;100.00;100722.19;4834781;29;19927;-93
2022/10/02 06:05:40;;;;;;;3.90;1.00;;;;;;;10.17;100.00;100719.66;4839683;29;20491;-93
2022/10/02 06:08:16;;;;;;;8.48;1.27;;;;;;;10.23;100.00;100720.91;4830033;29;20120;-92
2022/10/02 06:10:50;;;;;;;12.02;1.90;;;;;;;10.27;100.00;100727.59;4823974;29;20052;-92
2022/10/02 06:13:36;;;;;;;9.80;2.60;;;;;;;10.25;100.00;100734.84;4804753;29;20496;-93
2022/10/02 06:16:09;;;;;;;8.30;1.40;;;;;;;10.22;100.00;100739.56;4819067;29;20057;-92
2022/10/02 06:18:43;;;;;;;6.40;1.38;;;;;;;10.14;100.00;100727.88;4838616;29;20042;-92
2022/10/02 06:21:27;;;;;;;10.98;1.83;;;;;;;10.10;100.00;100739.66;4827841;29;20065;-92
2022/10/02 06:24:00;;;;;;;11.43;1.23;;;;;;;10.05;100.00;100737.41;4810326;29;20049;-92
2022/10/02 06:26:35;;;;;;;11.48;1.58;;;;;;;9.99;100.00;100732.66;4788395;29;20090;-92
2022/10/02 06:29:12;;;;;;;3.42;0.95;;;;;;;9.95;100.00;100733.91;4816742;29;20124;-92
2022/10/02 06:31:50;;;;;;;9.98;1.30;;;;;;;9.91;100.00;100750.97;4844090;29;20040;-93
2022/10/02 06:34:19;;;;;;;11.02;1.05;;;;;;;9.83;100.00;100751.63;4809581;29;20133;-92
2022/10/02 06:37:07;;;;;;;12.02;1.25;;;;;;;9.78;100.00;100752.03;4830408;29;20053;-92
2022/10/02 06:40:02;;;;;;;7.57;1.38;;;;;;;9.80;100.00;100759.81;4846073;29;20132;-91
2022/10/02 06:42:48;;;;;;;18.92;1.60;;;;;;;9.76;100.00;100759.22;4797333;29;20046;-91
2022/10/02 06:45:30;;;;;;;;;;;;;;;9.73;100.00;100774.53;4780691;29;20091;-91
2022/10/02 06:48:24;;;;;;;6.60;1.35;;;;;;;9.76;100.00;100782.19;4795016;29;20370;-92
2022/10/02 06:51:07;;;;;;;8.35;1.23;;;;;;;9.78;100.00;100786.34;4778585;29;20137;-91
2022/10/02 06:53:59;;;;;;;10.00;1.20;;;;;;;9.80;100.00;100789.69;4791761;29;20034;-92
2022/10/02 06:56:37;;;;;;;10.27;1.30;;;;;;;9.79;100.00;100798.56;4797754;29;20057;-91
2022/10/02 06:59:40;;;;;;;12.65;1.08;;;;;;;9.78;100.00;100793.41;4792582;29;20081;-93
2022/10/02 07:02:21;;;;;;;9.40;1.48;;;;;;;9.73;100.00;100796.44;4776524;29;20462;-92
2022/10/02 07:04:54;;;;;;;10.05;1.10;;;;;;;9.69;100.00;100808.25;4792227;29;20058;-93
2022/10/02 07:07:46;;;;;;;8.48;1.02;;;;;;;9.70;100.00;100809.09;4799436;29;20069;-92
2022/10/02 07:10:31;;;;;;;5.45;0.60;;;;;;;9.70;100.00;100814.38;4791681;29;20066;-93
2022/10/02 07:13:14;;;;;;;5.70;0.70;;;;;;;9.70;100.00;100823.09;4789531;29;20222;-92
2022/10/02 07:16:07;;;;;;;7.97;0.95;;;;;;;9.65;100.00;100820.84;4814928;29;20045;-93
2022/10/02 07:18:48;;;;;;;3.55;0.60;;;;;;;9.61;100.00;100830.00;4794265;29;20544;-92
2022/10/02 07:21:30;;;;;;;1.85;0.38;;;;;;;9.59;100.00;100834.56;4797404;29;20068;-93
2022/10/02 07:24:25;;;;;;;4.22;0.70;;;;;;;9.64;100.00;100845.59;4795781;29;20053;-91
2022/10/02 07:27:11;;;;;;;5.00;1.50;;;;;;;9.72;100.00;100850.22;4791839;29;20457;-92
2022/10/02 07:30:01;;;;;;;7.60;1.02;;;;;;;9.77;100.00;100845.41;4795785;29;20067;-91
2022/10/02 07:32:38;;;;;;;3.33;0.80;;;;;;;9.85;100.00;100844.75;4793320;29;20034;-91
2022/10/02 07:35:18;;;;;;;5.05;0.80;;;;;;;9.90;100.00;100847.84;4807860;29;20042;-92
2022/10/02 07:38:22;;;;;;;5.53;0.93;;;;;;;9.95;100.00;100862.44;4794158;29;20129;-93
2022/10/02 07:41:24;;;;;;;8.93;0.90;;;;;;;10.08;100.00;100867.53;4791389;29;20574;-93
2022/10/02 07:44:26;;;;;;;8.10;0.90;;;;;;;10.13;100.00;100862.72;4796677;29;20041;-93
2022/10/02 07:47:17;;;;;;;4.72;1.05;;;;;;;10.16;100.00;100873.00;4821426;29;20050;-92
2022/10/02 07:50:00;;;;;;;7.22;0.90;;;;;;;10.20;100.00;100886.78;4798887;29;20074;-92
2022/10/02 07:52:51;;;;;;;3.45;0.60;;;;;;;10.24;100.00;100888.19;4828068;29;20620;-92
2022/10/02 07:55:25;;;;;;;7.10;1.10;;;;;;;10.29;100.00;100891.28;4803999;29;20045;-93
2022/10/02 07:58:05;;;;;;;9.00;1.30;;;;;;;10.36;100.00;100902.16;4843207;29;20042;-92
2022/10/02 08:00:43;;;;;;;20.80;1.63;;;;;;;10.41;100.00;100906.09;4798379;29;20048;-92
2022/10/02 08:03:37;;;;;;;10.18;0.80;;;;;;;10.43;100.00;100904.13;4811004;29;20050;-92
2022/10/02 08:06:06;;;;;;;14.15;1.40;;;;;;;10.45;100.00;100909.28;4813465;29;20029;-93
2022/10/02 08:08:46;;;;;;;11.98;1.70;;;;;;;10.53;100.00;100914.78;4835119;29;20038;-93
2022/10/02 08:11:39;;;;;;;13.43;1.90;;;;;;;10.59;100.00;100920.53;4827929;29;20492;-91
2022/10/02 08:14:27;;;;;;;8.60;1.23;;;;;;;10.64;100.00;100918.31;4831851;29;20058;-91
2022/10/02 08:17:05;;;;;;;8.90;1.70;;;;;;;10.72;100.00;100921.13;4813918;29;20129;-91
2022/10/02 08:19:45;;;;;;;17.13;2.17;;;;;;;10.78;100.00;100928.50;4813111;29;20114;-93
2022/10/02 08:22:38;;;;;;;13.55;2.00;;;;;;;10.89;100.00;100948.72;4837624;29;20042;-91
2022/10/02 08:25:19;;;;;;;12.93;1.90;;;;;;;10.94;100.00;100950.16;4836256;29;20038;-93
2022/10/02 08:28:05;;;;;;;6.32;1.45;;;;;;;11.03;100.00;100954.63;4813209;29;20046;-93
2022/10/02 08:30:36;;;;;;;;;;;;;;;10.97;100.00;100953.38;4800260;29;20041;-93
2022/10/02 08:33:17;;;;;;;10.18;1.60;;;;;;;11.09;100.00;100961.19;4827597;29;19923;-92
2022/10/02 08:36:24;;;;;;;8.82;1.70;;;;;;;11.17;100.00;100969.28;4828271;29;20046;-93
2022/10/02 08:39:10;;;;;;;15.75;1.80;;;;;;;11.28;100.00;100977.13;4828588;29;20066;-92
2022/10/02 08:41:50;;;;;;;11.90;1.48;;;;;;;11.31;100.00;100973.34;4811952;29;20046;-91
2022/10/02 08:44:45;;;;;;;11.25;1.30;;;;;;;11.39;100.00;100984.09;4824323;29;20492;-90
2022/10/02 08:47:40;;;;;;;9.98;1.98;;;;;;;11.49;100.00;100989.44;4811801;29;20038;-91
2022/10/02 08:50:44;;;;;;;12.90;1.73;;;;;;;11.55;100.00;100993.31;4812343;29;20049;-91
2022/10/02 08:53:28;;;;;;;8.75;1.23;;;;;;;11.57;100.00;100996.69;4826655;29;20460;-91
2022/10/02 08:56:06;;;;;;;9.38;1.15;;;;;;;11.64;100.00;101005.72;4814263;29;20046;-92
2022/10/02 08:58:45;;;;;;;12.20;1.40;;;;;;;11.72;100.00;101006.88;4808996;29;20098;-91
2022/10/02 09:01:34;;;;;;;9.65;1.52;;;;;;;11.81;100.00;101011.34;4842837;29;20105;-92
2022/10/02 09:04:34;;;;;;;13.23;1.75;;;;;;;11.89;100.00;101015.94;4838927;29;20110;-90
2022/10/02 09:07:38;;;;;;;10.10;1.70;;;;;;;11.98;100.00;101022.19;4802865;29;20041;-91
2022/10/02 09:10:20;;;;;;;14.35;1.83;;;;;;;12.09;100.00;101024.75;4793396;29;20046;-94
2022/10/02 09:13:24;;;;;;;10.65;1.08;;;;;;;12.13;100.00;101031.47;4826567;29;20042;-93
2022/10/02 09:16:14;;;;;;;13.32;1.70;;;;;;;12.17;100.00;101032.00;4813869;29;20046;-91
2022/10/02 09:19:03;;;;;;;12.68;1.67;;;;;;;12.27;100.00;101037.28;4821726;29;20056;-92
2022/10/02 09:21:43;;;;;;;8.55;1.35;;;;;;;12.30;100.00;101044.97;4795720;29;20042;-92
2022/10/02 09:24:34;;;;;;;13.70;1.70;;;;;;;12.38;100.00;101052.22;4809240;29;20049;-92
2022/10/02 09:27:07;;;;;;;11.07;1.63;;;;;;;12.40;100.00;101058.22;4809431;29;20064;-92
2022/10/02 09:29:55;;;;;;;8.38;1.52;;;;;;;12.47;100.00;101053.19;4842448;29;20041;-92
2022/10/02 09:32:28;;;;;;;9.23;1.80;;;;;;;12.55;100.00;101055.13;4827064;29;20038;-93
2022/10/02 09:35:09;;;;;;;11.63;1.30;;;;;;;12.59;100.00;101062.66;4832000;29;20094;-93
2022/10/02 09:38:20;;;;;;;8.57;1.48;;;;;;;12.63;100.00;101065.84;4809027;29;20118;-93
2022/10/02 09:41:14;;;;;;;13.27;1.50;;;;;;;12.66;100.00;101076.19;4794719;29;20416;-93
2022/10/02 09:44:22;;;;;;;6.28;1.05;;;;;;;12.71;100.00;101081.06;4806292;29;20046;-91
2022/10/02 09:47:10;;;;;;;7.38;1.45;;;;;;;12.79;100.00;101073.22;4789409;29;20043;-90
2022/10/02 09:50:03;;;;;;;7.57;1.33;;;;;;;12.89;100.00;101083.81;4771651;29;20041;-90
2022/10/02 09:53:18;;;;;;;11.07;1.25;;;;;;;12.98;100.00;101088.25;4783934;29;20041;-91
2022/10/02 09:56:00;;;;;;;11.13;1.90;;;;;;;13.03;100.00;101087.81;4780270;29;20102;-92
2022/10/02 09:58:45;;;;;;;9.45;1.35;;;;;;;13.05;100.00;101088.50;4793303;29;20507;-91
2022/10/02 10:01:48;;;;;;;9.60;1.70;;;;;;;13.08;100.00;101103.28;4806179;29;20035;-91
2022/10/02 10:04:20;;;;;;;9.15;1.30;;;;;;;13.15;100.00;101107.06;4776841;29;20057;-92
2022/10/02 10:07:09;;;;;;;10.75;1.23;;;;;;;13.25;100.00;101107.03;4791784;29;20046;-92
2022/10/02 10:10:09;;;;;;;6.30;0.68;;;;;;;13.33;100.00;101104.47;4791961;29;20050;-90
2022/10/02 10:12:40;;;;;;;4.13;1.23;;;;;;;13.44;100.00;101107.94;4807635;29;20030;-90
2022/10/02 10:15:56;;;;;;;6.38;1.17;;;;;;;13.55;98.66;101114.91;4773872;29;20061;-89
2022/10/02 10:18:46;;;;;;;8.43;1.10;;;;;;;13.60;97.38;101117.94;4789026;29;20133;-89
2022/10/02 10:21:37;;;;;;;7.40;0.93;;;;;;;13.69;97.41;101113.56;4789739;29;20125;-91
2022/10/02 10:24:28;;;;;;;7.13;1.30;;;;;;;13.86;98.11;101123.38;4793539;29;20039;-90
2022/10/02 10:27:31;;;;;;;2.42;0.70;;;;;;;14.04;97.93;101121.75;4785362;29;20043;-91
2022/10/02 10:30:13;;;;;;;8.57;1.20;;;;;;;14.18;97.85;101128.34;4776809;29;20138;-91
2022/10/02 10:33:07;;;;;;;11.02;1.08;;;;;;;14.29;97.33;101135.25;4793053;29;20137;-89
2022/10/02 10:36:07;;;;;;;7.55;0.90;;;;;;;14.33;95.71;101131.31;4782251;29;20138;-89
2022/10/02 10:38:51;;;;;;;5.57;1.20;;;;;;;14.33;93.57;101131.31;4801232;29;20035;-89
2022/10/02 10:41:48;;;;;;;8.48;0.88;;;;;;;14.35;94.17;101129.38;4786035;29;20048;-91
2022/10/02 10:44:17;;;;;;;9.85;1.10;;;;;;;14.36;93.97;101131.88;4807937;29;20050;-90
2022/10/02 10:47:04;;;;;;;7.22;0.90;;;;;;;14.41;93.75;101135.88;4811563;29;20042;-92
2022/10/02 10:49:53;;;;;;;4.97;1.40;;;;;;;14.39;92.13;101134.22;4804492;29;20186;-91
2022/10/02 10:53:08;;;;;;;5.20;0.80;;;;;;;14.42;91.32;101137.53;4808153;29;20042;-90
2022/10/02 10:56:09;;;;;;;10.02;1.20;;;;;;;14.47;90.72;101137.94;4796155;29;20069;-90
2022/10/02 10:59:06;;;;;;;5.40;1.17;;;;;;;14.54;90.81;101138.97;4810548;29;20061;-90
2022/10/02 11:01:56;;;;;;;7.13;1.13;;;;;;;14.62;88.12;101152.34;4806279;29;20502;-91
2022/10/02 11:04:44;;;;;;;7.90;1.35;;;;;;;14.59;88.01;101155.31;4817942;29;20091;-92
2022/10/02 11:07:20;;;;;;;8.10;1.10;;;;;;;14.60;88.60;101156.16;4824424;29;20033;-92
2022/10/02 11:09:59;;;;;;;;;;;;;;;14.47;82.69;101145.91;4810710;29;20042;-90
2022/10/02 11:12:57;;;;;;;5.43;1.20;;;;;;;14.58;88.23;101148.34;4822802;29;20373;-92
2022/10/02 11:15:51;;;;;;;6.15;0.82;;;;;;;14.61;87.51;101147.19;4837259;29;20042;-91
2022/10/02 11:19:03;;;;;;;5.85;0.98;;;;;;;14.70;85.21;101145.44;4798902;29;20488;-91
2022/10/02 11:21:41;;;;;;;5.45;1.40;;;;;;;14.74;85.42;101146.78;4817777;29;20089;-92
2022/10/02 11:24:24;;;;;;;4.90;0.80;;;;;;;14.72;84.63;101149.59;4823694;29;20058;-92
2022/10/02 11:26:58;;;;;;;6.63;0.80;;;;;;;14.84;84.99;101142.22;4813211;29;20533;-91
2022/10/02 11:29:53;;;;;;;8.60;1.05;;;;;;;14.96;84.13;101141.97;4809849;29;20038;-90
2022/10/02 11:32:53;;;;;;;5.18;0.75;;;;;;;15.13;83.52;101135.78;4826621;29;20041;-89
2022/10/02 11:35:52;;;;;;;6.32;0.75;;;;;;;15.32;81.82;101147.19;4857270;29;20543;-91
2022/10/02 11:38:59;;;;;;;4.75;0.63;;;;;;;15.45;80.57;101153.94;4825377;29;20121;-90
2022/10/02 11:42:04;;;;;;;6.15;0.70;;;;;;;15.33;79.88;101159.53;4855908;29;20077;-90
2022/10/02 11:44:56;;;;;;;3.20;0.60;;;;;;;15.32;80.60;101165.00;4833285;29;20091;-89
2022/10/02 11:48:08;;;;;;;6.57;0.82;;;;;;;15.20;79.56;101167.94;4828694;29;20086;-92
2022/10/02 11:50:56;;;;;;;5.72;0.60;;;;;;;15.10;79.56;101172.50;4799097;29;20042;-90
2022/10/02 11:53:56;;;;;;;7.10;0.70;;;;;;;15.13;78.58;101165.06;4823047;29;20391;-88
2022/10/02 11:56:31;;;;;;;6.32;0.60;;;;;;;15.19;79.18;101174.28;4843422;29;20073;-90
2022/10/02 12:07:57;;;;;;;5.82;1.15;;;;;;;15.91;77.53;101160.75;4802092;29;20049;-89
2022/10/02 12:11:20;;;;;;;2.70;0.40;;;;;;;15.99;76.59;101160.78;4806520;29;20049;-90
2022/10/02 12:29:04;;;;;;;3.33;0.57;;;;;;;15.78;77.71;101194.03;4755313;30;20053;-88
2022/10/02 12:32:51;;;;;;;6.20;0.60;;;;;;;15.81;77.74;101204.38;4801239;29;20054;-87
2022/10/02 12:39:59;;;;;;;3.45;0.85;;;;;;;15.92;76.08;101200.59;4823192;29;20034;-88
2022/10/02 12:47:34;;;;;;;3.65;0.77;;;;;;;15.81;76.80;101211.53;4835204;29;20049;-89
2022/10/02 12:50:28;;;;;;;7.20;0.82;;;;;;;15.76;76.96;101209.34;4805620;29;20043;-90
2022/10/02 12:53:35;;;;;;;6.95;0.80;;;;;;;15.68;77.14;101212.81;4835806;29;20080;-91
2022/10/02 12:56:26;;;;;;;6.10;1.08;;;;;;;15.64;77.46;101214.13;4826441;29;20049;-90
2022/10/02 12:59:08;;;;;;;10.98;1.23;;;;;;;15.63;76.66;101213.28;4811695;29;20046;-88
2022/10/02 13:01:56;;;;;;;5.25;0.65;;;;;;;15.61;77.07;101217.94;4795784;29;20050;-88
2022/10/02 13:04:57;;;;;;;3.65;0.40;;;;;;;15.55;76.24;101207.91;4823563;29;20034;-88
2022/10/02 13:07:57;;;;;;;2.50;1.10;;;;;;;15.48;76.57;101214.88;4841556;29;20113;-88
2022/10/02 13:11:15;;;;;;;2.53;0.50;;;;;;;15.33;75.43;101219.94;4836827;29;20499;-90
2022/10/02 13:13:54;;;;;;;5.47;0.70;;;;;;;15.30;77.19;101210.44;4768279;29;20673;-89